sensor_id;sensor_type;location;lat;lon;timestamp;temperature;humidity
21261;DHT22;10788;47.930;9.766;2023-03-14T00:01:20;9.50;99.90
21261;DHT22;10788;47.930;9.766;2023-03-14T00:03:46;9.60;99.90
21261;DHT22;10788;47.930;9.766;2023-03-14T00:06:12;9.40;99.90
21261;DHT22;10788;47.930;9.766;2023-03-14T00:08:39;9.40;99.90
21261;DHT22;10788;47.930;9.766;2023-03-14T00:11:10;9.30;99.90
21261;DHT22;10788;47.930;9.766;2023-03-14T00:13:36;9.20;99.90
21261;DHT22;10788;47.930;9.766;2023-03-14T00:16:06;9.20;99.90
21261;DHT22;10788;47.930;9.766;2023-03-14T00:18:33;9.20;99.90
21261;DHT22;10788;47.930;9.766;2023-03-14T00:21:00;9.20;99.90
21261;DHT22;10788;47.930;9.766;2023-03-14T00:23:30;9.10;99.90
21261;DHT22;10788;47.930;9.766;2023-03-14T00:26:01;9.10;99.90
21261;DHT22;10788;47.930;9.766;2023-03-14T00:28:27;8.90;99.90
21261;DHT22;10788;47.930;9.766;2023-03-14T00:30:53;8.90;99.90
21261;DHT22;10788;47.930;9.766;2023-03-14T00:33:19;8.90;99.90
21261;DHT22;10788;47.930;9.766;2023-03-14T00:35:53;8.80;99.90
21261;DHT22;10788;47.930;9.766;2023-03-14T00:38:19;8.90;99.90
21261;DHT22;10788;47.930;9.766;2023-03-14T00:40:44;8.90;99.90
21261;DHT22;10788;47.930;9.766;2023-03-14T00:43:10;8.80;99.90
21261;DHT22;10788;47.930;9.766;2023-03-14T00:45:35;8.70;99.90
21261;DHT22;10788;47.930;9.766;2023-03-14T00:48:01;8.60;99.90
21261;DHT22;10788;47.930;9.766;2023-03-14T00:50:27;8.40;99.90
21261;DHT22;10788;47.930;9.766;2023-03-14T00:52:52;8.50;99.90
21261;DHT22;10788;47.930;9.766;2023-03-14T00:55:18;8.40;99.90
21261;DHT22;10788;47.930;9.766;2023-03-14T00:57:43;8.40;99.90
21261;DHT22;10788;47.930;9.766;2023-03-14T01:00:09;8.40;99.90
21261;DHT22;10788;47.930;9.766;2023-03-14T01:02:37;8.40;99.90
21261;DHT22;10788;47.930;9.766;2023-03-14T01:05:03;8.30;99.90
21261;DHT22;10788;47.930;9.766;2023-03-14T01:07:29;8.30;99.90
21261;DHT22;10788;47.930;9.766;2023-03-14T01:09:55;8.30;99.90
21261;DHT22;10788;47.930;9.766;2023-03-14T01:12:20;8.20;99.90
21261;DHT22;10788;47.930;9.766;2023-03-14T01:14:46;8.20;99.90
21261;DHT22;10788;47.930;9.766;2023-03-14T01:17:11;8.20;99.90
21261;DHT22;10788;47.930;9.766;2023-03-14T01:19:37;8.20;99.90
21261;DHT22;10788;47.930;9.766;2023-03-14T01:22:03;8.10;99.90
21261;DHT22;10788;47.930;9.766;2023-03-14T01:24:29;8.10;99.90
21261;DHT22;10788;47.930;9.766;2023-03-14T01:26:54;8.10;99.90
21261;DHT22;10788;47.930;9.766;2023-03-14T01:29:20;8.00;99.90
21261;DHT22;10788;47.930;9.766;2023-03-14T01:31:45;8.00;99.90
21261;DHT22;10788;47.930;9.766;2023-03-14T01:34:11;8.00;99.90
21261;DHT22;10788;47.930;9.766;2023-03-14T01:36:36;7.90;99.90
21261;DHT22;10788;47.930;9.766;2023-03-14T01:39:02;7.90;99.90
21261;DHT22;10788;47.930;9.766;2023-03-14T01:41:28;7.90;99.90
21261;DHT22;10788;47.930;9.766;2023-03-14T01:43:54;7.90;99.90
21261;DHT22;10788;47.930;9.766;2023-03-14T01:46:28;7.90;99.90
21261;DHT22;10788;47.930;9.766;2023-03-14T01:48:59;7.90;99.90
21261;DHT22;10788;47.930;9.766;2023-03-14T01:54:07;7.80;99.90
21261;DHT22;10788;47.930;9.766;2023-03-14T01:56:34;7.70;99.90
21261;DHT22;10788;47.930;9.766;2023-03-14T01:59:01;7.70;99.90
21261;DHT22;10788;47.930;9.766;2023-03-14T02:01:29;7.60;99.90
21261;DHT22;10788;47.930;9.766;2023-03-14T02:04:00;7.60;99.90
21261;DHT22;10788;47.930;9.766;2023-03-14T02:06:40;7.50;99.90
21261;DHT22;10788;47.930;9.766;2023-03-14T02:09:07;7.50;99.90
21261;DHT22;10788;47.930;9.766;2023-03-14T02:11:33;7.40;99.90
21261;DHT22;10788;47.930;9.766;2023-03-14T02:13:59;7.30;99.90
21261;DHT22;10788;47.930;9.766;2023-03-14T02:16:26;7.30;99.90
21261;DHT22;10788;47.930;9.766;2023-03-14T02:18:52;7.30;99.90
21261;DHT22;10788;47.930;9.766;2023-03-14T02:21:40;7.20;99.90
21261;DHT22;10788;47.930;9.766;2023-03-14T02:24:17;7.20;99.90
21261;DHT22;10788;47.930;9.766;2023-03-14T02:27:13;7.20;99.90
21261;DHT22;10788;47.930;9.766;2023-03-14T02:29:48;7.20;99.90
21261;DHT22;10788;47.930;9.766;2023-03-14T02:32:16;7.20;99.90
21261;DHT22;10788;47.930;9.766;2023-03-14T02:34:43;7.20;99.90
21261;DHT22;10788;47.930;9.766;2023-03-14T02:37:11;7.20;99.90
21261;DHT22;10788;47.930;9.766;2023-03-14T02:39:41;7.10;99.90
21261;DHT22;10788;47.930;9.766;2023-03-14T02:42:08;7.10;99.90
21261;DHT22;10788;47.930;9.766;2023-03-14T02:44:33;7.10;99.90
21261;DHT22;10788;47.930;9.766;2023-03-14T02:47:01;7.00;99.90
21261;DHT22;10788;47.930;9.766;2023-03-14T02:49:29;7.20;99.90
21261;DHT22;10788;47.930;9.766;2023-03-14T02:51:56;7.20;99.90
21261;DHT22;10788;47.930;9.766;2023-03-14T02:54:22;7.20;99.90
21261;DHT22;10788;47.930;9.766;2023-03-14T02:56:47;7.20;99.90
21261;DHT22;10788;47.930;9.766;2023-03-14T02:59:13;7.10;99.90
21261;DHT22;10788;47.930;9.766;2023-03-14T03:01:38;7.10;99.90
21261;DHT22;10788;47.930;9.766;2023-03-14T03:04:04;7.00;99.90
21261;DHT22;10788;47.930;9.766;2023-03-14T03:06:30;7.10;99.90
21261;DHT22;10788;47.930;9.766;2023-03-14T03:08:56;7.20;99.90
21261;DHT22;10788;47.930;9.766;2023-03-14T03:11:21;7.10;99.90
21261;DHT22;10788;47.930;9.766;2023-03-14T03:13:47;7.10;99.90
21261;DHT22;10788;47.930;9.766;2023-03-14T03:16:13;7.10;99.90
21261;DHT22;10788;47.930;9.766;2023-03-14T03:18:41;7.10;99.90
21261;DHT22;10788;47.930;9.766;2023-03-14T03:21:06;7.20;99.90
21261;DHT22;10788;47.930;9.766;2023-03-14T03:23:34;7.10;99.90
21261;DHT22;10788;47.930;9.766;2023-03-14T03:26:00;7.10;99.90
21261;DHT22;10788;47.930;9.766;2023-03-14T03:28:25;7.10;99.90
21261;DHT22;10788;47.930;9.766;2023-03-14T03:30:51;7.10;99.90
21261;DHT22;10788;47.930;9.766;2023-03-14T03:33:16;7.10;99.90
21261;DHT22;10788;47.930;9.766;2023-03-14T03:35:44;7.10;99.90
21261;DHT22;10788;47.930;9.766;2023-03-14T03:38:11;7.10;99.90
21261;DHT22;10788;47.930;9.766;2023-03-14T03:40:37;7.10;99.90
21261;DHT22;10788;47.930;9.766;2023-03-14T03:43:02;7.10;99.90
21261;DHT22;10788;47.930;9.766;2023-03-14T03:45:29;7.00;99.90
21261;DHT22;10788;47.930;9.766;2023-03-14T03:47:55;7.10;99.90
21261;DHT22;10788;47.930;9.766;2023-03-14T03:50:20;7.00;99.90
21261;DHT22;10788;47.930;9.766;2023-03-14T03:52:46;7.10;99.90
21261;DHT22;10788;47.930;9.766;2023-03-14T03:55:11;7.00;99.90
21261;DHT22;10788;47.930;9.766;2023-03-14T03:57:37;7.00;99.90
21261;DHT22;10788;47.930;9.766;2023-03-14T04:00:04;7.00;99.90
21261;DHT22;10788;47.930;9.766;2023-03-14T04:02:30;7.00;99.90
21261;DHT22;10788;47.930;9.766;2023-03-14T04:04:56;7.00;99.90
21261;DHT22;10788;47.930;9.766;2023-03-14T04:07:22;7.00;99.90
21261;DHT22;10788;47.930;9.766;2023-03-14T04:09:47;7.00;99.90
21261;DHT22;10788;47.930;9.766;2023-03-14T04:12:13;7.10;99.90
21261;DHT22;10788;47.930;9.766;2023-03-14T04:14:38;7.00;99.90
21261;DHT22;10788;47.930;9.766;2023-03-14T04:17:06;7.00;99.90
21261;DHT22;10788;47.930;9.766;2023-03-14T04:19:32;7.00;99.90
21261;DHT22;10788;47.930;9.766;2023-03-14T04:21:57;7.00;99.90
21261;DHT22;10788;47.930;9.766;2023-03-14T04:24:23;7.00;99.90
21261;DHT22;10788;47.930;9.766;2023-03-14T04:26:49;7.00;99.90
21261;DHT22;10788;47.930;9.766;2023-03-14T04:29:14;7.00;99.90
21261;DHT22;10788;47.930;9.766;2023-03-14T04:31:40;7.00;99.90
21261;DHT22;10788;47.930;9.766;2023-03-14T04:34:05;7.00;99.90
21261;DHT22;10788;47.930;9.766;2023-03-14T04:36:31;7.00;99.90
21261;DHT22;10788;47.930;9.766;2023-03-14T04:38:57;7.00;99.90
21261;DHT22;10788;47.930;9.766;2023-03-14T04:41:22;7.00;99.90
21261;DHT22;10788;47.930;9.766;2023-03-14T04:43:48;7.00;99.90
21261;DHT22;10788;47.930;9.766;2023-03-14T04:46:13;7.00;99.90
21261;DHT22;10788;47.930;9.766;2023-03-14T04:48:39;7.00;99.90
21261;DHT22;10788;47.930;9.766;2023-03-14T04:51:05;7.00;99.90
21261;DHT22;10788;47.930;9.766;2023-03-14T04:53:30;7.00;99.90
21261;DHT22;10788;47.930;9.766;2023-03-14T04:55:56;7.00;99.90
21261;DHT22;10788;47.930;9.766;2023-03-14T04:58:22;6.90;99.90
21261;DHT22;10788;47.930;9.766;2023-03-14T05:00:48;7.00;99.90
21261;DHT22;10788;47.930;9.766;2023-03-14T05:03:15;7.00;99.90
21261;DHT22;10788;47.930;9.766;2023-03-14T05:05:41;7.00;99.90
21261;DHT22;10788;47.930;9.766;2023-03-14T05:08:06;7.00;99.90
21261;DHT22;10788;47.930;9.766;2023-03-14T05:10:32;6.90;99.90
21261;DHT22;10788;47.930;9.766;2023-03-14T05:12:58;6.90;99.90
21261;DHT22;10788;47.930;9.766;2023-03-14T05:15:24;6.90;99.90
21261;DHT22;10788;47.930;9.766;2023-03-14T05:17:49;6.90;99.90
21261;DHT22;10788;47.930;9.766;2023-03-14T05:20:15;6.90;99.90
21261;DHT22;10788;47.930;9.766;2023-03-14T05:22:41;6.90;99.90
21261;DHT22;10788;47.930;9.766;2023-03-14T05:25:08;6.90;99.90
21261;DHT22;10788;47.930;9.766;2023-03-14T05:27:34;6.90;99.90
21261;DHT22;10788;47.930;9.766;2023-03-14T05:30:00;6.90;99.90
21261;DHT22;10788;47.930;9.766;2023-03-14T05:32:26;6.90;99.90
21261;DHT22;10788;47.930;9.766;2023-03-14T05:34:52;6.90;99.90
21261;DHT22;10788;47.930;9.766;2023-03-14T05:37:17;6.90;99.90
21261;DHT22;10788;47.930;9.766;2023-03-14T05:39:43;6.90;99.90
21261;DHT22;10788;47.930;9.766;2023-03-14T05:42:09;6.90;99.90
21261;DHT22;10788;47.930;9.766;2023-03-14T05:44:34;6.80;99.90
21261;DHT22;10788;47.930;9.766;2023-03-14T05:47:00;6.80;99.90
21261;DHT22;10788;47.930;9.766;2023-03-14T05:49:25;6.80;99.90
21261;DHT22;10788;47.930;9.766;2023-03-14T05:51:51;6.80;99.90
21261;DHT22;10788;47.930;9.766;2023-03-14T05:54:17;6.80;99.90
21261;DHT22;10788;47.930;9.766;2023-03-14T05:56:43;6.80;99.90
21261;DHT22;10788;47.930;9.766;2023-03-14T05:59:08;6.70;99.90
21261;DHT22;10788;47.930;9.766;2023-03-14T06:01:35;6.70;99.90
21261;DHT22;10788;47.930;9.766;2023-03-14T06:04:01;6.70;99.90
21261;DHT22;10788;47.930;9.766;2023-03-14T06:06:26;6.70;99.90
21261;DHT22;10788;47.930;9.766;2023-03-14T06:08:52;6.70;99.90
21261;DHT22;10788;47.930;9.766;2023-03-14T06:11:17;6.80;99.90
21261;DHT22;10788;47.930;9.766;2023-03-14T06:13:43;6.80;99.90
21261;DHT22;10788;47.930;9.766;2023-03-14T06:16:09;6.70;99.90
21261;DHT22;10788;47.930;9.766;2023-03-14T06:18:34;6.70;99.90
21261;DHT22;10788;47.930;9.766;2023-03-14T06:21:00;6.80;99.90
21261;DHT22;10788;47.930;9.766;2023-03-14T06:23:26;6.80;99.90
21261;DHT22;10788;47.930;9.766;2023-03-14T06:25:52;6.80;99.90
21261;DHT22;10788;47.930;9.766;2023-03-14T06:28:18;6.90;99.90
21261;DHT22;10788;47.930;9.766;2023-03-14T06:30:43;6.90;99.90
21261;DHT22;10788;47.930;9.766;2023-03-14T06:33:09;6.90;99.90
21261;DHT22;10788;47.930;9.766;2023-03-14T06:35:35;6.90;99.90
21261;DHT22;10788;47.930;9.766;2023-03-14T06:38:00;6.90;99.90
21261;DHT22;10788;47.930;9.766;2023-03-14T06:40:26;6.90;99.90
21261;DHT22;10788;47.930;9.766;2023-03-14T06:42:52;6.90;99.90
21261;DHT22;10788;47.930;9.766;2023-03-14T06:45:17;6.90;99.90
21261;DHT22;10788;47.930;9.766;2023-03-14T06:47:43;7.00;99.90
21261;DHT22;10788;47.930;9.766;2023-03-14T06:50:09;7.10;99.90
21261;DHT22;10788;47.930;9.766;2023-03-14T06:52:36;7.10;99.90
21261;DHT22;10788;47.930;9.766;2023-03-14T06:55:02;7.10;99.90
21261;DHT22;10788;47.930;9.766;2023-03-14T06:57:28;7.10;99.90
21261;DHT22;10788;47.930;9.766;2023-03-14T06:59:53;7.20;99.90
21261;DHT22;10788;47.930;9.766;2023-03-14T07:02:19;7.10;99.90
21261;DHT22;10788;47.930;9.766;2023-03-14T07:04:44;7.10;99.90
21261;DHT22;10788;47.930;9.766;2023-03-14T07:07:10;7.10;99.90
21261;DHT22;10788;47.930;9.766;2023-03-14T07:09:36;7.10;99.90
21261;DHT22;10788;47.930;9.766;2023-03-14T07:12:02;7.10;99.90
21261;DHT22;10788;47.930;9.766;2023-03-14T07:14:29;7.10;99.90
21261;DHT22;10788;47.930;9.766;2023-03-14T07:16:55;7.10;99.90
21261;DHT22;10788;47.930;9.766;2023-03-14T07:19:21;7.10;99.90
21261;DHT22;10788;47.930;9.766;2023-03-14T07:21:46;7.20;99.90
21261;DHT22;10788;47.930;9.766;2023-03-14T07:24:12;7.20;99.90
21261;DHT22;10788;47.930;9.766;2023-03-14T07:26:38;7.20;99.90
21261;DHT22;10788;47.930;9.766;2023-03-14T07:29:04;7.30;99.90
21261;DHT22;10788;47.930;9.766;2023-03-14T07:31:29;7.40;99.90
21261;DHT22;10788;47.930;9.766;2023-03-14T07:33:55;7.40;99.90
21261;DHT22;10788;47.930;9.766;2023-03-14T07:36:21;7.40;99.90
21261;DHT22;10788;47.930;9.766;2023-03-14T07:38:47;7.50;99.90
21261;DHT22;10788;47.930;9.766;2023-03-14T07:41:13;7.50;99.90
21261;DHT22;10788;47.930;9.766;2023-03-14T07:43:39;7.50;99.90
21261;DHT22;10788;47.930;9.766;2023-03-14T07:46:05;7.60;99.90
21261;DHT22;10788;47.930;9.766;2023-03-14T07:48:31;7.60;99.90
21261;DHT22;10788;47.930;9.766;2023-03-14T07:50:57;7.70;99.90
21261;DHT22;10788;47.930;9.766;2023-03-14T07:53:23;7.80;99.90
21261;DHT22;10788;47.930;9.766;2023-03-14T07:55:51;7.80;99.90
21261;DHT22;10788;47.930;9.766;2023-03-14T07:58:17;7.90;99.90
21261;DHT22;10788;47.930;9.766;2023-03-14T08:00:43;8.00;99.90
21261;DHT22;10788;47.930;9.766;2023-03-14T08:03:09;8.00;99.90
21261;DHT22;10788;47.930;9.766;2023-03-14T08:05:36;8.00;99.90
21261;DHT22;10788;47.930;9.766;2023-03-14T08:08:03;8.00;99.90
21261;DHT22;10788;47.930;9.766;2023-03-14T08:10:28;8.00;99.90
21261;DHT22;10788;47.930;9.766;2023-03-14T08:12:55;8.00;99.90
21261;DHT22;10788;47.930;9.766;2023-03-14T08:15:22;8.00;99.90
21261;DHT22;10788;47.930;9.766;2023-03-14T08:17:47;8.10;99.90
21261;DHT22;10788;47.930;9.766;2023-03-14T08:20:17;8.10;99.90
21261;DHT22;10788;47.930;9.766;2023-03-14T08:22:43;8.30;99.90
21261;DHT22;10788;47.930;9.766;2023-03-14T08:25:09;8.50;99.90
21261;DHT22;10788;47.930;9.766;2023-03-14T08:27:34;8.80;99.90
21261;DHT22;10788;47.930;9.766;2023-03-14T08:30:03;8.90;99.90
21261;DHT22;10788;47.930;9.766;2023-03-14T08:32:29;9.10;99.90
21261;DHT22;10788;47.930;9.766;2023-03-14T08:34:55;9.20;99.90
21261;DHT22;10788;47.930;9.766;2023-03-14T08:37:21;9.20;99.90
21261;DHT22;10788;47.930;9.766;2023-03-14T08:39:47;9.30;99.90
21261;DHT22;10788;47.930;9.766;2023-03-14T08:42:12;9.40;99.90
21261;DHT22;10788;47.930;9.766;2023-03-14T08:44:38;9.50;99.90
21261;DHT22;10788;47.930;9.766;2023-03-14T08:47:04;9.40;99.90
21261;DHT22;10788;47.930;9.766;2023-03-14T08:49:29;9.50;99.90
21261;DHT22;10788;47.930;9.766;2023-03-14T08:51:55;9.40;99.90
21261;DHT22;10788;47.930;9.766;2023-03-14T08:54:20;9.40;99.90
21261;DHT22;10788;47.930;9.766;2023-03-14T08:56:46;9.30;99.90
21261;DHT22;10788;47.930;9.766;2023-03-14T08:59:12;9.30;99.90
21261;DHT22;10788;47.930;9.766;2023-03-14T09:01:37;9.50;99.90
21261;DHT22;10788;47.930;9.766;2023-03-14T09:04:03;9.70;99.90
21261;DHT22;10788;47.930;9.766;2023-03-14T09:06:29;9.80;99.90
21261;DHT22;10788;47.930;9.766;2023-03-14T09:08:54;10.10;99.90
21261;DHT22;10788;47.930;9.766;2023-03-14T09:11:20;10.50;99.90
21261;DHT22;10788;47.930;9.766;2023-03-14T09:13:46;10.50;99.90
21261;DHT22;10788;47.930;9.766;2023-03-14T09:16:11;10.30;99.90
21261;DHT22;10788;47.930;9.766;2023-03-14T09:18:37;10.10;99.90
21261;DHT22;10788;47.930;9.766;2023-03-14T09:21:02;10.00;99.90
21261;DHT22;10788;47.930;9.766;2023-03-14T09:23:28;10.00;99.90
21261;DHT22;10788;47.930;9.766;2023-03-14T09:25:58;10.30;99.90
21261;DHT22;10788;47.930;9.766;2023-03-14T09:28:24;10.40;99.90
21261;DHT22;10788;47.930;9.766;2023-03-14T09:30:50;10.50;99.90
21261;DHT22;10788;47.930;9.766;2023-03-14T09:33:16;10.60;99.90
21261;DHT22;10788;47.930;9.766;2023-03-14T09:35:42;10.90;99.90
21261;DHT22;10788;47.930;9.766;2023-03-14T09:38:08;11.20;99.90
21261;DHT22;10788;47.930;9.766;2023-03-14T09:40:37;11.50;99.90
21261;DHT22;10788;47.930;9.766;2023-03-14T09:43:03;11.80;99.90
21261;DHT22;10788;47.930;9.766;2023-03-14T09:45:36;11.70;99.90
21261;DHT22;10788;47.930;9.766;2023-03-14T09:48:03;12.00;99.90
21261;DHT22;10788;47.930;9.766;2023-03-14T09:50:42;12.10;99.90
21261;DHT22;10788;47.930;9.766;2023-03-14T09:53:20;12.10;99.90
21261;DHT22;10788;47.930;9.766;2023-03-14T09:55:49;12.00;99.90
21261;DHT22;10788;47.930;9.766;2023-03-14T09:58:22;11.90;99.90
21261;DHT22;10788;47.930;9.766;2023-03-14T10:00:55;11.90;99.90
21261;DHT22;10788;47.930;9.766;2023-03-14T10:03:32;11.40;99.90
21261;DHT22;10788;47.930;9.766;2023-03-14T10:05:58;11.40;99.90
21261;DHT22;10788;47.930;9.766;2023-03-14T10:08:24;11.40;99.90
21261;DHT22;10788;47.930;9.766;2023-03-14T10:10:50;11.50;99.90
21261;DHT22;10788;47.930;9.766;2023-03-14T10:13:24;11.40;99.90
21261;DHT22;10788;47.930;9.766;2023-03-14T10:15:59;11.50;99.90
21261;DHT22;10788;47.930;9.766;2023-03-14T10:18:27;11.50;99.90
21261;DHT22;10788;47.930;9.766;2023-03-14T10:21:26;11.40;99.90
21261;DHT22;10788;47.930;9.766;2023-03-14T10:23:52;11.30;99.90
21261;DHT22;10788;47.930;9.766;2023-03-14T10:26:24;11.30;99.90
21261;DHT22;10788;47.930;9.766;2023-03-14T10:28:53;11.10;99.90
21261;DHT22;10788;47.930;9.766;2023-03-14T10:31:25;10.90;99.90
21261;DHT22;10788;47.930;9.766;2023-03-14T10:34:04;10.90;99.90
21261;DHT22;10788;47.930;9.766;2023-03-14T10:36:31;10.80;99.90
21261;DHT22;10788;47.930;9.766;2023-03-14T10:41:52;10.70;99.90
21261;DHT22;10788;47.930;9.766;2023-03-14T10:44:21;10.60;99.90
21261;DHT22;10788;47.930;9.766;2023-03-14T10:46:56;10.40;99.90
21261;DHT22;10788;47.930;9.766;2023-03-14T10:49:32;10.50;99.90
21261;DHT22;10788;47.930;9.766;2023-03-14T10:54:54;10.30;99.90
21261;DHT22;10788;47.930;9.766;2023-03-14T10:57:20;10.30;99.90
21261;DHT22;10788;47.930;9.766;2023-03-14T10:59:46;10.30;99.90
21261;DHT22;10788;47.930;9.766;2023-03-14T11:04:57;10.10;99.90
21261;DHT22;10788;47.930;9.766;2023-03-14T11:07:40;10.20;99.90
21261;DHT22;10788;47.930;9.766;2023-03-14T11:10:11;10.10;99.90
21261;DHT22;10788;47.930;9.766;2023-03-14T11:15:38;9.90;99.90
21261;DHT22;10788;47.930;9.766;2023-03-14T11:18:31;9.90;99.90
21261;DHT22;10788;47.930;9.766;2023-03-14T11:31:56;10.00;99.90
21261;DHT22;10788;47.930;9.766;2023-03-14T11:34:46;9.80;99.90
21261;DHT22;10788;47.930;9.766;2023-03-14T11:40:12;9.70;99.90
21261;DHT22;10788;47.930;9.766;2023-03-14T11:42:43;9.50;99.90
21261;DHT22;10788;47.930;9.766;2023-03-14T11:45:22;9.60;99.90
21261;DHT22;10788;47.930;9.766;2023-03-14T11:48:05;9.40;99.90
21261;DHT22;10788;47.930;9.766;2023-03-14T11:50:33;9.50;99.90
21261;DHT22;10788;47.930;9.766;2023-03-14T11:53:04;9.30;99.90
21261;DHT22;10788;47.930;9.766;2023-03-14T11:55:34;9.20;99.90
21261;DHT22;10788;47.930;9.766;2023-03-14T11:58:16;8.90;99.90
21261;DHT22;10788;47.930;9.766;2023-03-14T12:00:44;8.80;99.90
21261;DHT22;10788;47.930;9.766;2023-03-14T12:03:35;8.60;99.90
21261;DHT22;10788;47.930;9.766;2023-03-14T12:08:49;8.40;99.90
21261;DHT22;10788;47.930;9.766;2023-03-14T12:14:23;8.30;99.90
21261;DHT22;10788;47.930;9.766;2023-03-14T12:17:36;8.20;99.90
21261;DHT22;10788;47.930;9.766;2023-03-14T12:19:42;8.10;99.90
21261;DHT22;10788;47.930;9.766;2023-03-14T12:24:37;8.10;99.90
21261;DHT22;10788;47.930;9.766;2023-03-14T12:27:05;8.00;99.90
21261;DHT22;10788;47.930;9.766;2023-03-14T12:29:32;8.00;99.90
21261;DHT22;10788;47.930;9.766;2023-03-14T12:34:43;7.90;99.90
21261;DHT22;10788;47.930;9.766;2023-03-14T12:37:31;7.80;99.90
21261;DHT22;10788;47.930;9.766;2023-03-14T12:42:59;7.80;99.90
21261;DHT22;10788;47.930;9.766;2023-03-14T12:45:29;7.70;99.90
21261;DHT22;10788;47.930;9.766;2023-03-14T12:50:56;7.50;99.90
21261;DHT22;10788;47.930;9.766;2023-03-14T13:01:20;7.10;99.90
21261;DHT22;10788;47.930;9.766;2023-03-14T13:03:55;7.10;99.90
21261;DHT22;10788;47.930;9.766;2023-03-14T13:12:00;6.80;99.90
21261;DHT22;10788;47.930;9.766;2023-03-14T13:14:29;6.80;99.90
21261;DHT22;10788;47.930;9.766;2023-03-14T13:16:55;6.90;99.90
21261;DHT22;10788;47.930;9.766;2023-03-14T13:19:26;6.80;99.90
21261;DHT22;10788;47.930;9.766;2023-03-14T13:22:04;6.80;99.90
21261;DHT22;10788;47.930;9.766;2023-03-14T13:24:33;6.70;99.90
21261;DHT22;10788;47.930;9.766;2023-03-14T13:27:00;6.70;99.90
21261;DHT22;10788;47.930;9.766;2023-03-14T13:29:30;6.80;99.90
21261;DHT22;10788;47.930;9.766;2023-03-14T13:31:59;6.80;99.90
21261;DHT22;10788;47.930;9.766;2023-03-14T13:34:26;6.80;99.90
21261;DHT22;10788;47.930;9.766;2023-03-14T13:36:53;6.70;99.90
21261;DHT22;10788;47.930;9.766;2023-03-14T13:39:21;6.80;99.90
21261;DHT22;10788;47.930;9.766;2023-03-14T13:41:51;6.80;99.90
21261;DHT22;10788;47.930;9.766;2023-03-14T13:45:00;6.70;99.90
21261;DHT22;10788;47.930;9.766;2023-03-14T13:47:17;6.70;99.90
21261;DHT22;10788;47.930;9.766;2023-03-14T13:49:43;6.60;99.90
21261;DHT22;10788;47.930;9.766;2023-03-14T13:52:32;6.60;99.90
21261;DHT22;10788;47.930;9.766;2023-03-14T13:55:02;6.60;99.90
21261;DHT22;10788;47.930;9.766;2023-03-14T13:57:46;6.60;99.90
21261;DHT22;10788;47.930;9.766;2023-03-14T14:00:24;6.70;99.90
21261;DHT22;10788;47.930;9.766;2023-03-14T14:02:53;6.60;99.90
21261;DHT22;10788;47.930;9.766;2023-03-14T14:05:20;6.70;99.90
21261;DHT22;10788;47.930;9.766;2023-03-14T14:07:46;6.60;99.90
21261;DHT22;10788;47.930;9.766;2023-03-14T14:10:13;6.60;99.90
21261;DHT22;10788;47.930;9.766;2023-03-14T14:15:23;6.50;99.90
21261;DHT22;10788;47.930;9.766;2023-03-14T14:17:52;6.50;99.90
21261;DHT22;10788;47.930;9.766;2023-03-14T14:20:40;6.60;99.90
21261;DHT22;10788;47.930;9.766;2023-03-14T14:23:11;6.60;99.90
21261;DHT22;10788;47.930;9.766;2023-03-14T14:25:38;6.70;99.90
21261;DHT22;10788;47.930;9.766;2023-03-14T14:31:18;6.70;99.90
21261;DHT22;10788;47.930;9.766;2023-03-14T14:39:00;6.90;99.90
21261;DHT22;10788;47.930;9.766;2023-03-14T14:41:33;6.90;99.90
21261;DHT22;10788;47.930;9.766;2023-03-14T14:44:00;7.00;99.90
21261;DHT22;10788;47.930;9.766;2023-03-14T14:46:29;7.10;99.90
21261;DHT22;10788;47.930;9.766;2023-03-14T14:48:57;7.10;99.90
21261;DHT22;10788;47.930;9.766;2023-03-14T14:51:26;7.30;99.90
21261;DHT22;10788;47.930;9.766;2023-03-14T14:54:04;7.40;99.90
21261;DHT22;10788;47.930;9.766;2023-03-14T14:56:36;7.40;99.90
21261;DHT22;10788;47.930;9.766;2023-03-14T14:59:02;7.40;99.90
21261;DHT22;10788;47.930;9.766;2023-03-14T15:01:37;7.40;99.90
21261;DHT22;10788;47.930;9.766;2023-03-14T15:04:10;7.40;99.90
21261;DHT22;10788;47.930;9.766;2023-03-14T15:06:37;7.40;99.90
21261;DHT22;10788;47.930;9.766;2023-03-14T15:09:04;7.40;99.90
21261;DHT22;10788;47.930;9.766;2023-03-14T15:11:30;7.20;99.90
21261;DHT22;10788;47.930;9.766;2023-03-14T15:13:55;7.20;99.90
21261;DHT22;10788;47.930;9.766;2023-03-14T15:16:28;7.20;99.90
21261;DHT22;10788;47.930;9.766;2023-03-14T15:18:56;7.10;99.90
21261;DHT22;10788;47.930;9.766;2023-03-14T15:21:24;7.10;99.90
21261;DHT22;10788;47.930;9.766;2023-03-14T15:23:50;7.10;99.90
21261;DHT22;10788;47.930;9.766;2023-03-14T15:26:21;7.00;99.90
21261;DHT22;10788;47.930;9.766;2023-03-14T15:28:47;6.90;99.90
21261;DHT22;10788;47.930;9.766;2023-03-14T15:31:15;6.90;99.90
21261;DHT22;10788;47.930;9.766;2023-03-14T15:33:42;6.90;99.90
21261;DHT22;10788;47.930;9.766;2023-03-14T15:36:29;6.90;99.90
21261;DHT22;10788;47.930;9.766;2023-03-14T15:38:56;6.80;99.90
21261;DHT22;10788;47.930;9.766;2023-03-14T15:41:23;6.70;99.90
21261;DHT22;10788;47.930;9.766;2023-03-14T15:43:49;6.70;99.90
21261;DHT22;10788;47.930;9.766;2023-03-14T15:46:15;6.60;99.90
21261;DHT22;10788;47.930;9.766;2023-03-14T15:48:43;6.70;99.90
21261;DHT22;10788;47.930;9.766;2023-03-14T15:51:08;6.60;99.90
21261;DHT22;10788;47.930;9.766;2023-03-14T15:53:34;6.60;99.90
21261;DHT22;10788;47.930;9.766;2023-03-14T15:56:03;6.60;99.90
21261;DHT22;10788;47.930;9.766;2023-03-14T15:58:29;6.60;99.90
21261;DHT22;10788;47.930;9.766;2023-03-14T16:00:54;6.60;99.90
21261;DHT22;10788;47.930;9.766;2023-03-14T16:03:20;6.50;99.90
21261;DHT22;10788;47.930;9.766;2023-03-14T16:05:46;6.50;99.90
21261;DHT22;10788;47.930;9.766;2023-03-14T16:08:11;6.40;99.90
21261;DHT22;10788;47.930;9.766;2023-03-14T16:10:37;6.40;99.90
21261;DHT22;10788;47.930;9.766;2023-03-14T16:13:04;6.30;99.90
21261;DHT22;10788;47.930;9.766;2023-03-14T16:15:29;6.40;99.90
21261;DHT22;10788;47.930;9.766;2023-03-14T16:17:55;6.40;99.90
21261;DHT22;10788;47.930;9.766;2023-03-14T16:20:22;6.40;99.90
21261;DHT22;10788;47.930;9.766;2023-03-14T16:22:48;6.40;99.90
21261;DHT22;10788;47.930;9.766;2023-03-14T16:25:14;6.40;99.90
21261;DHT22;10788;47.930;9.766;2023-03-14T16:27:40;6.40;99.90
21261;DHT22;10788;47.930;9.766;2023-03-14T16:30:07;6.40;99.90
21261;DHT22;10788;47.930;9.766;2023-03-14T16:32:33;6.40;99.90
21261;DHT22;10788;47.930;9.766;2023-03-14T16:34:59;6.40;99.90
21261;DHT22;10788;47.930;9.766;2023-03-14T16:37:25;6.40;99.90
21261;DHT22;10788;47.930;9.766;2023-03-14T16:39:52;6.30;99.90
21261;DHT22;10788;47.930;9.766;2023-03-14T16:42:18;6.40;99.90
21261;DHT22;10788;47.930;9.766;2023-03-14T16:44:45;6.40;99.90
21261;DHT22;10788;47.930;9.766;2023-03-14T16:47:11;6.40;99.90
21261;DHT22;10788;47.930;9.766;2023-03-14T16:49:37;6.50;99.90
21261;DHT22;10788;47.930;9.766;2023-03-14T16:52:03;6.50;99.90
21261;DHT22;10788;47.930;9.766;2023-03-14T16:54:29;6.50;99.90
21261;DHT22;10788;47.930;9.766;2023-03-14T16:56:55;6.50;99.90
21261;DHT22;10788;47.930;9.766;2023-03-14T16:59:20;6.40;99.90